Time;durP1;ratioP1;P1;durP2;ratioP2;P2;SDS_P1;SDS_P2;PMS_P1;PMS_P2;Temp;Humidity;BMP_temperature;BMP_pressure;BME280_temperature;BME280_humidity;BME280_pressure;Samples;Min_cycle;Max_cycle;Signal;HPM_P1;HPM_P2
2023/12/08 00:01:14;;;;;;;65.03;27.05;;;4.90;69.30;;;-0.39;100.00;94950.38;4978258;28;20022;-55
2023/12/08 00:03:41;;;;;;;64.40;25.05;;;4.90;69.40;;;-0.50;100.00;94932.75;4979597;28;20030;-54
2023/12/08 00:06:08;;;;;;;68.63;27.33;;;4.90;69.30;;;-0.56;100.00;94930.97;4977283;28;20022;-52
2023/12/08 00:08:38;;;;;;;75.22;28.98;;;4.90;69.30;;;-0.54;100.00;94905.38;4985411;28;20052;-51
2023/12/08 00:11:06;;;;;;;86.82;29.08;;;4.90;69.30;;;-0.58;100.00;94889.31;4985705;28;20030;-53
2023/12/08 00:13:34;;;;;;;81.65;29.33;;;4.80;69.30;;;-0.62;100.00;94869.03;4979221;28;20472;-52
2023/12/08 00:16:00;;;;;;;91.65;31.33;;;4.80;69.30;;;-0.61;100.00;94899.41;4985384;28;20029;-51
2023/12/08 00:18:26;;;;;;;85.68;29.92;;;4.80;69.30;;;-0.58;100.00;94909.47;4980089;28;20034;-51
2023/12/08 00:20:51;;;;;;;76.88;28.77;;;4.70;69.30;;;-0.57;100.00;94918.91;4982964;28;20061;-52
2023/12/08 00:23:17;;;;;;;84.55;29.15;;;4.70;69.40;;;-0.55;100.00;94914.25;4977024;28;20513;-55
2023/12/08 00:25:43;;;;;;;80.30;29.25;;;4.70;69.40;;;-0.55;100.00;94914.25;4985142;28;20434;-51
2023/12/08 00:28:09;;;;;;;80.32;29.73;;;4.70;69.50;;;-0.52;100.00;94908.59;4983194;28;20058;-51
2023/12/08 00:30:35;;;;;;;80.32;29.73;;;4.80;69.70;;;-0.52;100.00;94909.41;4978120;28;20122;-51
2023/12/08 00:33:02;;;;;;;79.15;29.00;;;4.80;69.70;;;-0.50;100.00;94899.53;4982589;28;20380;-50
2023/12/08 00:35:29;;;;;;;75.18;28.75;;;4.80;69.70;;;-0.51;100.00;94900.53;4975875;28;20123;-51
2023/12/08 00:37:54;;;;;;;75.05;27.17;;;4.80;69.70;;;-0.48;100.00;94905.34;4982470;28;20067;-49
2023/12/08 00:40:21;;;;;;;73.97;28.52;;;4.80;69.60;;;-0.46;100.00;94928.69;4978276;28;20052;-50
2023/12/08 00:42:47;;;;;;;77.60;29.00;;;4.80;69.60;;;-0.44;100.00;94910.16;4984435;28;20022;-55
2023/12/08 00:45:15;;;;;;;71.18;28.95;;;4.80;69.60;;;-0.42;100.00;94911.56;4984804;28;20030;-55
2023/12/08 00:47:41;;;;;;;73.55;27.75;;;4.80;69.70;;;-0.43;100.00;94927.47;4985215;28;20091;-53
2023/12/08 00:50:08;;;;;;;78.13;28.75;;;4.90;69.70;;;-0.46;100.00;94926.09;4986134;28;20140;-50
2023/12/08 00:52:35;;;;;;;75.85;29.92;;;4.90;69.70;;;-0.43;100.00;94909.97;4979617;28;20022;-50
2023/12/08 00:55:01;;;;;;;67.65;27.27;;;4.90;69.60;;;-0.43;100.00;94904.72;4986213;28;20033;-50
2023/12/08 00:57:27;;;;;;;66.32;27.38;;;4.80;69.60;;;-0.41;100.00;94904.50;4982425;28;20030;-48
2023/12/08 00:59:53;;;;;;;70.25;27.27;;;4.90;69.70;;;-0.40;100.00;94893.84;4981705;28;20096;-48
2023/12/08 01:02:19;;;;;;;75.85;29.63;;;4.90;69.70;;;-0.39;100.00;94884.97;4979734;28;20080;-51
2023/12/08 01:04:45;;;;;;;70.00;28.10;;;4.90;69.60;;;-0.52;100.00;94872.78;4978978;28;20073;-52
2023/12/08 01:07:11;;;;;;;70.40;26.95;;;4.90;69.50;;;-0.50;100.00;94859.50;4988473;28;20017;-55
2023/12/08 01:09:36;;;;;;;80.38;29.83;;;4.90;69.50;;;-0.50;100.00;94869.97;4985809;28;20026;-55
2023/12/08 01:12:03;;;;;;;73.20;27.40;;;4.80;69.50;;;-0.45;100.00;94877.16;4983429;28;20019;-52
2023/12/08 01:14:29;;;;;;;71.97;26.90;;;4.80;69.50;;;-0.44;100.00;94884.78;4986025;28;20034;-54
2023/12/08 01:16:56;;;;;;;71.38;27.40;;;4.80;69.50;;;-0.52;100.00;94885.84;4987855;28;20021;-54
2023/12/08 01:19:22;;;;;;;70.10;27.45;;;4.80;69.50;;;-0.52;100.00;94885.84;4987761;28;20036;-50
2023/12/08 01:21:48;;;;;;;68.85;26.58;;;4.80;69.40;;;-0.50;100.00;94877.81;4987832;28;20116;-51
2023/12/08 01:24:15;;;;;;;74.72;26.85;;;4.80;69.50;;;-0.54;100.00;94882.66;4987965;28;20044;-51
2023/12/08 01:26:45;;;;;;;67.03;27.33;;;4.80;69.50;;;-0.51;100.00;94895.31;4988432;28;20029;-54
2023/12/08 01:29:12;;;;;;;69.30;27.17;;;4.80;69.60;;;-0.49;100.00;94901.13;4987380;28;20045;-50
2023/12/08 01:31:38;;;;;;;60.38;24.40;;;4.80;69.50;;;-0.49;100.00;94890.66;4980027;28;20026;-55
2023/12/08 01:34:04;;;;;;;68.75;27.02;;;4.80;69.50;;;-0.49;100.00;94892.50;4980797;28;20048;-49
2023/12/08 01:36:30;;;;;;;73.72;28.13;;;4.80;69.50;;;-0.55;100.00;94878.44;4988531;28;20022;-50
2023/12/08 01:38:57;;;;;;;74.88;28.33;;;4.80;69.40;;;-0.59;100.00;94879.09;4988068;28;20029;-49
2023/12/08 01:41:23;;;;;;;71.53;28.10;;;4.70;69.30;;;-0.61;100.00;94876.66;4989178;28;20106;-49
2023/12/08 01:43:48;;;;;;;84.00;27.33;;;4.70;69.40;;;-0.61;100.00;94868.81;4976959;28;20128;-48
2023/12/08 01:46:18;;;;;;;63.88;24.70;;;4.70;69.40;;;-0.64;100.00;94863.22;4985712;28;20446;-48
2023/12/08 01:48:47;;;;;;;67.82;26.60;;;4.70;69.40;;;-0.64;100.00;94857.97;4983209;28;20116;-48
2023/12/08 01:51:16;;;;;;;63.10;24.42;;;4.60;69.40;;;-0.64;100.00;94855.38;4983920;28;20465;-48
2023/12/08 01:53:45;;;;;;;64.88;24.85;;;4.60;69.40;;;-0.63;100.00;94852.53;4983529;28;20029;-49
2023/12/08 01:56:13;;;;;;;96.20;26.15;;;4.60;69.50;;;-0.65;100.00;94864.22;4990856;28;20088;-51
2023/12/08 01:58:42;;;;;;;65.13;25.48;;;4.70;69.50;;;-0.66;100.00;94873.06;4984088;28;20388;-51
2023/12/08 02:01:10;;;;;;;66.88;25.02;;;4.60;69.40;;;-0.65;100.00;94872.88;4985606;28;20026;-53
2023/12/08 02:03:39;;;;;;;66.57;25.10;;;4.70;69.50;;;-0.64;100.00;94874.47;4990315;28;20029;-54
2023/12/08 02:06:06;;;;;;;72.47;26.77;;;4.70;69.60;;;-0.64;100.00;94881.53;4984445;28;20022;-51
2023/12/08 02:08:32;;;;;;;72.13;27.05;;;4.60;69.50;;;-0.61;100.00;94883.72;4990514;28;20116;-51
2023/12/08 02:10:59;;;;;;;68.18;27.08;;;4.70;70.40;;;-0.61;100.00;94875.88;4998252;28;20057;-52
2023/12/08 02:13:25;;;;;;;69.80;26.55;;;4.70;69.70;;;-0.59;100.00;94884.31;4985183;28;20017;-49
2023/12/08 02:16:11;;;;;;;65.22;25.77;;;4.70;69.60;;;-0.57;100.00;94877.03;4985793;28;20053;-52
2023/12/08 02:18:40;;;;;;;64.30;26.15;;;4.70;69.60;;;-0.56;100.00;94883.91;4980625;28;20033;-53
2023/12/08 02:21:08;;;;;;;69.03;26.92;;;4.70;69.60;;;-0.55;100.00;94898.56;4984774;28;20502;-49
2023/12/08 02:23:36;;;;;;;68.38;26.50;;;4.70;69.60;;;-0.57;100.00;94903.19;4977596;28;20026;-53
2023/12/08 02:26:04;;;;;;;63.47;27.48;;;4.70;69.60;;;-0.56;100.00;94902.22;4988270;28;20108;-52
2023/12/08 02:28:30;;;;;;;68.72;27.15;;;4.70;69.60;;;-0.56;100.00;94905.63;4979106;28;20546;-53
2023/12/08 02:31:00;;;;;;;69.85;26.75;;;4.70;69.60;;;-0.55;100.00;94906.41;4982138;28;20022;-51
2023/12/08 02:33:39;;;;;;;71.47;26.58;;;4.70;69.60;;;-0.52;100.00;94921.69;4988614;28;20488;-54
2023/12/08 02:36:07;;;;;;;66.40;26.73;;;4.80;69.70;;;-0.54;100.00;94919.28;4978689;28;20493;-54
2023/12/08 02:38:35;;;;;;;64.20;25.70;;;4.70;69.60;;;-0.52;100.00;94919.06;4982267;28;20037;-50
2023/12/08 02:41:01;;;;;;;70.88;27.77;;;4.80;69.70;;;-0.52;100.00;94926.94;4984782;28;20110;-51
2023/12/08 02:43:27;;;;;;;73.13;28.13;;;4.70;69.60;;;-0.52;100.00;94924.31;4984670;28;20034;-54
2023/12/08 02:45:53;;;;;;;70.15;27.40;;;4.80;69.70;;;-0.51;100.00;94928.53;4985347;28;20033;-53
2023/12/08 02:48:19;;;;;;;78.20;27.98;;;4.80;69.70;;;-0.50;100.00;94938.00;4986495;28;20028;-49
2023/12/08 02:50:46;;;;;;;68.18;27.38;;;4.80;69.70;;;-0.51;100.00;94942.41;4989320;28;20050;-53
2023/12/08 02:53:12;;;;;;;71.45;28.55;;;4.80;69.70;;;-0.52;100.00;94947.84;4981437;28;20401;-49
2023/12/08 02:55:39;;;;;;;79.47;29.95;;;4.80;69.70;;;-0.53;100.00;94939.22;4991033;28;20528;-50
2023/12/08 02:58:04;;;;;;;76.15;28.15;;;4.80;69.70;;;-0.51;100.00;94928.53;4984324;28;20037;-50
2023/12/08 03:00:30;;;;;;;73.22;27.73;;;4.80;69.80;;;-0.50;100.00;94935.38;4985600;28;20033;-52
2023/12/08 03:02:56;;;;;;;68.80;27.73;;;4.80;70.50;;;-0.52;100.00;94940.81;4987205;28;20113;-53
2023/12/08 03:05:22;;;;;;;72.55;28.17;;;4.80;69.70;;;-0.50;100.00;94927.53;4985328;28;20033;-54
2023/12/08 03:07:48;;;;;;;78.28;29.33;;;4.80;69.70;;;-0.51;100.00;94918.06;4979156;28;20104;-51
2023/12/08 03:10:14;;;;;;;73.85;28.50;;;4.80;69.70;;;-0.55;100.00;94914.25;4986247;28;20034;-50
2023/12/08 03:12:40;;;;;;;69.50;28.35;;;4.80;69.60;;;-0.54;100.00;94921.88;4987467;28;20026;-53
2023/12/08 03:15:07;;;;;;;76.10;28.95;;;4.80;69.60;;;-0.51;100.00;94920.66;4988644;28;20115;-52
2023/12/08 03:17:32;;;;;;;70.68;28.02;;;4.80;69.70;;;-0.51;100.00;94923.28;4990637;28;20026;-53
2023/12/08 03:19:58;;;;;;;71.68;28.30;;;4.80;69.70;;;-0.51;100.00;94921.47;4980465;28;20037;-51
2023/12/08 03:22:24;;;;;;;75.18;28.75;;;4.80;69.70;;;-0.49;100.00;94932.53;4986038;28;20025;-52
2023/12/08 03:24:50;;;;;;;72.25;29.08;;;4.80;69.70;;;-0.47;100.00;94920.06;4982527;28;20038;-50
2023/12/08 03:27:16;;;;;;;74.10;28.38;;;4.80;69.70;;;-0.55;100.00;94925.53;4984793;28;20464;-50
2023/12/08 03:33:41;;;;;;;77.38;27.33;;;4.80;69.60;;;-0.54;100.00;94926.31;4983179;28;20052;-53
2023/12/08 03:36:08;;;;;;;71.10;26.80;;;4.80;69.80;;;-0.54;100.00;94928.94;4989600;28;20472;-52
2023/12/08 03:38:34;;;;;;;70.70;26.88;;;4.70;69.80;;;-0.53;100.00;94933.97;4990591;28;20805;-56
2023/12/08 03:41:00;;;;;;;73.35;29.67;;;4.80;69.80;;;-0.52;100.00;94921.69;4989552;28;20112;-56
2023/12/08 03:43:26;;;;;;;67.65;26.95;;;4.70;69.80;;;-0.51;100.00;94920.66;4980814;28;20085;-52
2023/12/08 03:45:52;;;;;;;78.47;28.80;;;4.80;69.90;;;-0.52;100.00;94913.84;4991016;28;20037;-53
2023/12/08 03:48:17;;;;;;;79.30;28.75;;;4.80;69.90;;;-0.57;100.00;94918.91;4986046;28;20076;-54
2023/12/08 03:50:43;;;;;;;60.33;24.80;;;4.80;70.00;;;-0.70;100.00;94896.25;4985515;28;20045;-56
2023/12/08 03:53:09;;;;;;;82.32;29.83;;;4.70;69.90;;;-0.62;100.00;94934.44;4988603;28;20029;-56
2023/12/08 03:55:35;;;;;;;65.97;27.33;;;4.80;70.10;;;-0.57;100.00;94939.81;4989994;28;20053;-54
2023/12/08 03:58:00;;;;;;;70.88;27.70;;;4.80;70.10;;;-0.49;100.00;94932.53;4990148;28;20047;-51
2023/12/08 04:00:26;;;;;;;69.07;28.13;;;4.80;70.10;;;-0.49;100.00;94932.53;4987449;28;20025;-54
2023/12/08 04:02:52;;;;;;;65.82;26.25;;;4.80;70.10;;;-0.47;100.00;94929.69;4987362;28;20033;-53
2023/12/08 04:05:18;;;;;;;58.35;25.17;;;4.80;70.10;;;-0.48;100.00;94933.34;4987517;28;20125;-54
2023/12/08 04:07:44;;;;;;;64.10;27.10;;;4.80;70.20;;;-0.39;100.00;94942.53;4989186;28;20364;-56
2023/12/08 04:10:09;;;;;;;59.47;26.08;;;4.80;70.20;;;-0.37;100.00;94948.38;4990466;28;20037;-50
2023/12/08 04:12:35;;;;;;;58.10;24.67;;;4.90;70.30;;;-0.35;100.00;94959.41;4988523;28;20480;-55
2023/12/08 04:15:01;;;;;;;51.53;24.42;;;4.90;70.30;;;-0.33;100.00;94952.16;4985976;28;20034;-52
2023/12/08 04:17:27;;;;;;;47.13;22.48;;;4.90;70.30;;;-0.22;100.00;94942.81;4999079;28;20061;-56
2023/12/08 04:19:53;;;;;;;45.03;22.13;;;4.90;70.40;;;-0.16;100.00;94968.13;4989335;28;20036;-56
2023/12/08 04:22:18;;;;;;;41.00;21.67;;;5.00;70.70;;;-0.07;100.00;94969.47;4991178;28;20120;-56
2023/12/08 04:24:44;;;;;;;35.80;19.77;;;5.00;70.70;;;0.05;100.00;94963.56;4990620;28;20902;-54
2023/12/08 04:27:10;;;;;;;38.33;19.23;;;5.10;70.70;;;0.08;100.00;94971.78;4989932;28;20029;-52
2023/12/08 04:29:36;;;;;;;41.30;20.45;;;5.10;70.70;;;0.14;100.00;94976.19;4978787;28;20032;-50
2023/12/08 04:32:02;;;;;;;36.97;19.40;;;5.20;70.60;;;0.15;100.00;94975.16;4978814;28;20500;-53
2023/12/08 04:34:28;;;;;;;33.30;18.17;;;5.20;70.40;;;0.17;100.00;94985.44;4985203;28;20026;-52
2023/12/08 04:36:53;;;;;;;33.45;18.42;;;5.30;70.40;;;0.19;100.00;94980.78;4988926;28;20013;-53
2023/12/08 04:39:19;;;;;;;39.60;19.80;;;5.30;70.20;;;0.23;100.00;95000.28;4985952;28;20109;-52
2023/12/08 04:41:45;;;;;;;37.63;20.33;;;5.30;70.20;;;0.27;100.00;95004.09;4990470;28;20376;-55
2023/12/08 04:44:11;;;;;;;35.92;18.70;;;5.40;70.10;;;0.29;100.00;95009.91;4988210;28;20112;-56
2023/12/08 04:46:37;;;;;;;29.88;16.40;;;5.40;70.10;;;0.34;100.00;95011.88;4979967;28;20485;-53
2023/12/08 04:49:02;;;;;;;27.25;16.02;;;5.40;70.10;;;0.42;100.00;95012.41;4990105;28;20024;-52
2023/12/08 04:51:28;;;;;;;29.02;16.20;;;5.50;70.20;;;0.49;100.00;95019.44;4989308;28;20032;-50
2023/12/08 04:53:54;;;;;;;28.52;15.88;;;5.50;70.10;;;0.53;100.00;95021.38;4990450;28;20028;-51
2023/12/08 04:56:20;;;;;;;28.02;16.02;;;5.60;70.00;;;0.54;100.00;95014.34;4984808;28;20021;-54
2023/12/08 04:58:47;;;;;;;29.65;15.73;;;5.60;69.90;;;0.57;100.00;95014.72;4990083;28;20425;-56
2023/12/08 05:01:14;;;;;;;27.90;15.48;;;5.70;69.80;;;0.58;100.00;95008.44;4990067;28;20113;-56
2023/12/08 05:03:41;;;;;;;23.65;14.20;;;5.70;69.80;;;0.65;100.00;95001.31;4989516;28;20550;-51
2023/12/08 05:06:08;;;;;;;22.50;13.10;;;5.70;69.80;;;0.71;100.00;94999.66;4990379;28;20034;-54
2023/12/08 05:08:35;;;;;;;22.33;13.27;;;5.80;69.80;;;0.77;100.00;95006.66;4988919;28;20033;-56
2023/12/08 05:11:01;;;;;;;23.40;13.20;;;5.80;69.70;;;0.81;100.00;94999.16;4990219;28;20648;-56
2023/12/08 05:13:27;;;;;;;22.35;12.98;;;5.90;69.70;;;0.84;100.00;95004.75;4989124;28;20026;-53
2023/12/08 05:15:53;;;;;;;20.70;13.02;;;5.90;69.60;;;0.88;100.00;95003.31;5005135;28;20033;-54
2023/12/08 05:18:19;;;;;;;18.50;11.27;;;5.90;69.60;;;0.89;100.00;95004.91;4989767;28;20052;-54
2023/12/08 05:20:44;;;;;;;24.17;13.70;;;5.90;69.50;;;0.89;100.00;95006.75;4989229;28;20025;-55
2023/12/08 05:23:11;;;;;;;20.90;12.88;;;6.00;69.50;;;0.91;100.00;95020.44;4990155;28;20476;-55
2023/12/08 05:25:37;;;;;;;23.23;13.18;;;6.00;69.30;;;0.89;100.00;95014.63;4992243;28;20038;-56
2023/12/08 05:28:03;;;;;;;20.63;12.30;;;6.00;69.20;;;0.92;100.00;95024.66;5009006;28;20032;-52
2023/12/08 05:30:29;;;;;;;21.23;12.57;;;6.00;69.20;;;0.95;100.00;95018.19;4992382;28;20029;-54
2023/12/08 05:32:54;;;;;;;22.58;12.38;;;6.10;69.20;;;0.96;100.00;95017.97;4992491;28;20476;-54
2023/12/08 05:35:21;;;;;;;19.98;12.48;;;6.10;69.20;;;0.98;100.00;95005.44;4993921;28;20022;-52
2023/12/08 05:37:47;;;;;;;17.35;11.52;;;6.10;69.30;;;1.05;100.00;95000.13;4992324;28;20064;-49
2023/12/08 05:40:13;;;;;;;18.67;11.07;;;6.10;69.30;;;1.07;100.00;95001.50;4993334;28;20025;-50
2023/12/08 05:42:39;;;;;;;21.77;11.85;;;6.20;69.30;;;1.12;100.00;95013.94;4993555;28;20025;-53
2023/12/08 05:45:06;;;;;;;20.25;11.65;;;6.10;69.20;;;1.17;100.00;95010.69;5011673;23;20064;-54
2023/12/08 05:47:32;;;;;;;20.38;11.38;;;6.20;69.20;;;1.18;100.00;95015.69;4990026;28;20032;-53
2023/12/08 05:49:58;;;;;;;18.38;11.02;;;6.20;69.20;;;1.18;100.00;95002.59;4991425;28;20022;-53
2023/12/08 05:52:24;;;;;;;21.02;12.57;;;6.20;69.10;;;1.18;100.00;94999.97;4992900;28;20033;-52
2023/12/08 05:54:49;;;;;;;22.00;12.82;;;6.20;69.10;;;1.22;100.00;95001.13;4980042;28;20026;-54
2023/12/08 05:57:15;;;;;;;18.95;11.75;;;6.20;69.00;;;1.24;100.00;95008.78;4973264;28;20411;-50
2023/12/08 05:59:41;;;;;;;20.20;12.00;;;6.20;69.00;;;1.22;100.00;94995.88;4974069;28;20026;-50
2023/12/08 06:02:07;;;;;;;20.75;11.43;;;6.20;69.00;;;1.24;100.00;94998.28;4972431;28;20034;-47
2023/12/08 06:04:33;;;;;;;19.45;11.95;;;6.30;69.10;;;1.18;100.00;94989.47;4973491;28;20096;-49
2023/12/08 06:06:59;;;;;;;24.77;13.18;;;6.30;69.00;;;1.17;100.00;95001.00;4973550;28;20456;-50
2023/12/08 06:09:24;;;;;;;22.20;12.57;;;6.30;68.90;;;1.17;100.00;95000.19;4972974;28;20105;-50
2023/12/08 06:11:51;;;;;;;22.63;13.25;;;6.30;68.90;;;1.19;100.00;94996.31;4973530;28;20500;-50
2023/12/08 06:14:16;;;;;;;19.70;11.30;;;6.30;68.90;;;1.18;100.00;95005.22;4954637;28;20034;-49
2023/12/08 06:16:43;;;;;;;20.15;11.25;;;6.30;69.70;;;1.17;100.00;94998.38;4973869;28;20025;-50
2023/12/08 06:19:09;;;;;;;21.40;12.82;;;6.30;68.90;;;1.17;100.00;94995.75;4973565;28;20392;-48
2023/12/08 06:21:35;;;;;;;23.42;13.32;;;6.30;68.80;;;1.13;100.00;94998.00;4972299;28;20022;-49
2023/12/08 06:24:01;;;;;;;24.20;13.02;;;6.40;68.90;;;1.13;100.00;94990.13;4972876;28;20033;-48
2023/12/08 06:26:27;;;;;;;26.15;13.18;;;6.30;68.80;;;1.13;100.00;94984.88;4972349;28;20022;-52
2023/12/08 06:28:53;;;;;;;20.85;11.90;;;6.40;68.90;;;1.15;100.00;94993.31;4971839;28;20452;-53
2023/12/08 06:31:19;;;;;;;24.75;12.55;;;6.30;68.90;;;1.17;100.00;94989.69;4972016;28;20041;-52
2023/12/08 06:33:45;;;;;;;22.15;11.80;;;6.40;69.00;;;1.17;100.00;94985.25;4972253;28;20038;-53
2023/12/08 06:36:11;;;;;;;20.17;12.40;;;6.30;69.00;;;1.14;100.00;94994.34;4971711;28;20509;-51
2023/12/08 06:38:40;;;;;;;25.58;11.82;;;6.40;69.00;;;1.15;100.00;94995.94;4967734;28;20149;-48
2023/12/08 06:41:06;;;;;;;23.58;13.13;;;6.40;68.90;;;1.13;100.00;95000.63;4974438;28;20396;-48
2023/12/08 06:43:32;;;;;;;23.95;14.23;;;6.30;68.80;;;1.10;100.00;94990.56;4971255;28;20033;-48
2023/12/08 06:45:58;;;;;;;25.90;14.02;;;6.30;68.80;;;1.09;100.00;95002.06;4972226;28;20030;-52
2023/12/08 06:48:24;;;;;;;25.38;13.70;;;6.40;68.90;;;1.10;100.00;94995.03;4973148;28;20077;-50
2023/12/08 06:50:51;;;;;;;22.77;12.63;;;6.40;68.90;;;1.10;100.00;94998.44;4971111;28;20022;-50
2023/12/08 06:53:17;;;;;;;26.02;14.32;;;6.40;69.70;;;1.08;100.00;94991.81;4971765;28;20021;-49
2023/12/08 06:55:44;;;;;;;29.50;16.15;;;6.40;68.90;;;1.09;100.00;94991.56;4970997;28;20393;-48
2023/12/08 06:58:10;;;;;;;26.65;14.15;;;6.40;68.90;;;1.10;100.00;94995.81;4972071;28;20026;-48
2023/12/08 07:00:36;;;;;;;22.05;13.15;;;6.40;68.90;;;1.08;100.00;95000.47;4972585;28;20042;-48
2023/12/08 07:03:03;;;;;;;23.23;12.95;;;6.40;69.00;;;1.06;100.00;94991.22;4970301;28;20091;-48
2023/12/08 07:05:29;;;;;;;24.95;12.70;;;6.40;68.90;;;1.07;100.00;94992.84;4971385;28;20509;-49
2023/12/08 07:07:56;;;;;;;22.52;12.77;;;6.40;68.80;;;1.06;100.00;94991.22;4972031;28;20079;-48
2023/12/08 07:10:22;;;;;;;26.88;13.90;;;6.40;68.80;;;1.05;100.00;94990.41;4972095;28;20037;-53
2023/12/08 07:12:48;;;;;;;27.58;13.73;;;6.40;68.80;;;0.96;100.00;94986.50;4972741;28;20380;-49
2023/12/08 07:15:14;;;;;;;26.25;12.90;;;6.40;68.80;;;1.01;100.00;94994.50;4970386;28;20034;-54
2023/12/08 07:17:40;;;;;;;30.08;14.10;;;6.30;68.70;;;1.01;100.00;94999.75;4971060;28;20026;-50
2023/12/08 07:20:10;;;;;;;23.85;13.13;;;6.30;68.80;;;1.00;100.00;94998.13;4970409;28;20026;-48
2023/12/08 07:22:37;;;;;;;25.33;13.23;;;6.30;68.90;;;1.01;100.00;94986.66;4971868;28;20026;-52
2023/12/08 07:25:09;;;;;;;28.52;13.68;;;6.40;68.90;;;0.99;100.00;94986.06;4971371;28;20511;-48
2023/12/08 07:27:35;;;;;;;24.27;13.15;;;6.30;68.90;;;0.97;100.00;94982.84;4971929;28;20026;-51
2023/12/08 07:30:03;;;;;;;31.33;14.13;;;6.30;68.90;;;0.98;100.00;94987.06;4975053;28;20411;-48
2023/12/08 07:32:29;;;;;;;27.80;13.98;;;6.30;68.90;;;0.93;100.00;94987.72;4966762;28;20537;-51
2023/12/08 07:34:54;;;;;;;28.55;13.45;;;6.30;68.90;;;0.96;100.00;94994.34;4973928;28;20143;-47
2023/12/08 07:37:20;;;;;;;27.92;13.38;;;6.40;69.00;;;0.98;100.00;94986.28;4971002;28;20365;-55
2023/12/08 07:39:46;;;;;;;27.13;14.13;;;6.30;68.90;;;0.99;100.00;94988.66;4978390;28;20403;-49
2023/12/08 07:42:12;;;;;;;25.17;13.32;;;6.40;69.10;;;1.01;100.00;94985.84;4972550;28;20029;-48
2023/12/08 07:44:38;;;;;;;26.13;13.02;;;6.40;69.10;;;1.03;100.00;94989.03;4969854;28;20092;-48
2023/12/08 07:47:04;;;;;;;31.15;14.10;;;6.40;69.10;;;1.04;100.00;94993.28;4971471;28;20026;-48
2023/12/08 07:49:30;;;;;;;21.45;12.02;;;6.40;69.10;;;1.05;100.00;95000.91;4971729;28;20061;-49
2023/12/08 07:51:56;;;;;;;28.98;15.57;;;6.40;69.00;;;1.04;100.00;94993.28;4977580;28;20045;-51
2023/12/08 07:54:21;;;;;;;27.60;13.40;;;6.50;69.10;;;1.06;100.00;94986.78;4974142;28;20267;-49
2023/12/08 07:56:47;;;;;;;24.33;12.55;;;6.50;69.00;;;1.05;100.00;94987.78;4972928;28;20026;-54
2023/12/08 07:59:13;;;;;;;24.85;12.48;;;6.50;69.00;;;1.07;100.00;94983.16;4971490;28;20026;-50
2023/12/08 08:01:39;;;;;;;28.70;13.57;;;6.50;69.00;;;1.10;100.00;94987.16;4970466;28;20018;-48
2023/12/08 08:04:04;;;;;;;28.77;13.02;;;6.50;69.00;;;1.09;100.00;94988.94;4970706;28;20034;-50
2023/12/08 08:06:30;;;;;;;25.70;13.68;;;6.50;68.90;;;1.11;100.00;94991.38;4971482;28;20036;-49
2023/12/08 08:08:56;;;;;;;26.08;12.70;;;6.60;68.90;;;1.09;100.00;94990.78;4970389;28;20030;-51
2023/12/08 08:11:22;;;;;;;21.05;11.63;;;6.60;68.90;;;1.02;100.00;94993.47;4971821;28;20138;-51
2023/12/08 08:13:48;;;;;;;22.88;10.73;;;6.60;68.90;;;1.06;100.00;94993.84;4969791;28;20108;-50
2023/12/08 08:16:13;;;;;;;22.20;11.30;;;6.60;69.00;;;1.11;100.00;94992.16;4971612;28;20026;-48
2023/12/08 08:18:39;;;;;;;17.52;10.38;;;6.60;69.20;;;1.10;100.00;95000.28;4971205;28;20042;-50
2023/12/08 08:21:05;;;;;;;18.15;10.55;;;6.60;69.20;;;1.18;100.00;95001.78;4970307;28;20036;-50
2023/12/08 08:23:32;;;;;;;18.50;10.25;;;6.60;69.20;;;1.28;100.00;94996.81;4970761;28;20367;-49
2023/12/08 08:25:59;;;;;;;16.83;9.52;;;6.70;69.30;;;1.32;100.00;95004.03;4967564;28;20116;-48
2023/12/08 08:28:26;;;;;;;17.98;9.75;;;6.70;69.20;;;1.35;100.00;95002.81;4971089;28;20469;-51
2023/12/08 08:30:52;;;;;;;14.05;8.63;;;6.70;69.10;;;1.36;100.00;94994.69;4971264;28;20099;-49
2023/12/08 08:33:18;;;;;;;15.50;8.90;;;6.80;69.10;;;1.39;100.00;95001.34;4969508;28;20457;-49
2023/12/08 08:35:43;;;;;;;13.13;7.72;;;6.80;68.90;;;1.38;100.00;94995.28;4971001;28;20034;-48
2023/12/08 08:38:11;;;;;;;16.40;9.02;;;6.80;68.90;;;1.43;100.00;94994.59;4970089;28;20100;-48
2023/12/08 08:40:37;;;;;;;16.77;9.02;;;6.90;68.80;;;1.48;100.00;95000.00;4971225;28;20041;-48
2023/12/08 08:43:03;;;;;;;12.52;8.20;;;6.90;68.70;;;1.50;100.00;95000.56;4970647;28;20384;-52
2023/12/08 08:45:29;;;;;;;12.15;7.65;;;7.00;68.70;;;1.46;100.00;94996.78;4969401;28;20042;-52
2023/12/08 08:47:54;;;;;;;16.83;8.60;;;7.00;68.60;;;1.49;100.00;94987.69;4970712;28;20024;-49
2023/12/08 08:50:22;;;;;;;13.18;8.60;;;7.00;68.50;;;1.47;100.00;94992.34;4970155;28;20556;-54
2023/12/08 08:52:48;;;;;;;14.10;8.88;;;7.00;68.40;;;1.54;100.00;94986.00;4970586;28;20103;-49
2023/12/08 08:55:14;;;;;;;12.43;8.10;;;7.10;68.50;;;1.62;100.00;94993.53;4971119;28;20045;-55
2023/12/08 08:57:39;;;;;;;11.15;7.60;;;7.10;68.50;;;1.70;100.00;95007.41;4969313;28;20018;-52
2023/12/08 09:00:11;;;;;;;11.57;7.55;;;7.10;68.40;;;1.76;100.00;95007.31;4967929;28;20030;-52
2023/12/08 09:02:38;;;;;;;11.27;6.75;;;7.20;68.40;;;1.82;100.00;95010.88;4969789;28;20030;-53
2023/12/08 09:05:05;;;;;;;12.68;7.57;;;7.30;68.50;;;1.89;100.00;95005.53;4970225;28;20121;-52
2023/12/08 09:07:31;;;;;;;9.88;6.40;;;7.40;68.50;;;1.93;100.00;95010.09;4970048;28;20030;-53
2023/12/08 09:09:58;;;;;;;12.98;6.60;;;7.40;68.40;;;1.99;100.00;95003.94;4970641;28;20027;-51
2023/12/08 09:12:24;;;;;;;13.68;7.53;;;7.50;68.40;;;2.04;100.00;95008.53;4970562;28;20374;-51
2023/12/08 09:14:50;;;;;;;15.88;8.30;;;7.50;68.30;;;2.06;100.00;95001.22;4969378;28;20041;-54
2023/12/08 09:17:15;;;;;;;15.32;8.63;;;7.60;68.30;;;2.07;100.00;95013.34;4970454;28;20034;-53
2023/12/08 09:19:41;;;;;;;12.70;7.72;;;7.70;68.30;;;2.08;100.00;95007.84;4969804;28;20030;-52
2023/12/08 09:22:07;;;;;;;13.07;7.30;;;7.70;68.20;;;2.09;100.00;95006.81;4970504;28;20052;-50
2023/12/08 09:24:33;;;;;;;10.82;6.88;;;7.70;68.10;;;2.14;100.00;95014.03;4970050;28;20026;-49
2023/12/08 09:27:01;;;;;;;10.32;6.82;;;7.80;68.10;;;2.11;100.00;95014.50;4969367;28;20026;-49
2023/12/08 09:29:26;;;;;;;12.55;7.00;;;7.80;67.90;;;2.14;100.00;95018.50;4970035;28;20030;-51
2023/12/08 09:31:52;;;;;;;10.05;6.63;;;7.80;67.90;;;2.15;100.00;95014.84;4969374;28;20022;-49
2023/12/08 09:34:18;;;;;;;10.88;6.50;;;7.80;67.80;;;2.11;100.00;95014.50;4969746;28;20037;-51
2023/12/08 09:36:45;;;;;;;9.80;6.32;;;7.80;67.80;;;2.12;100.00;95010.03;4970756;28;20030;-50
2023/12/08 09:39:11;;;;;;;9.07;5.72;;;7.80;67.70;;;2.14;100.00;95011.41;4969589;28;20077;-51
2023/12/08 09:41:40;;;;;;;9.75;5.72;;;7.80;67.60;;;2.18;100.00;95009.13;4970351;28;20018;-51
2023/12/08 09:44:13;;;;;;;7.68;5.55;;;7.80;67.60;;;2.20;100.00;95004.47;4968743;28;20050;-51
2023/12/08 09:46:45;;;;;;;8.25;5.57;;;7.90;67.60;;;2.26;100.00;95000.94;4970187;28;20018;-49
2023/12/08 09:49:28;;;;;;;8.43;5.38;;;7.90;67.60;;;2.30;100.00;95002.88;4970548;28;20026;-52
2023/12/08 09:51:55;;;;;;;;;;;8.00;67.60;;;2.35;100.00;94996.94;4969579;28;20022;-55
2023/12/08 09:54:23;;;;;;;7.65;4.90;;;8.00;67.70;;;2.44;100.00;94998.19;4966835;28;19967;-48
2023/12/08 09:56:52;;;;;;;7.30;5.30;;;8.10;67.70;;;2.50;100.00;94994.63;4969251;28;20053;-52
2023/12/08 09:59:27;;;;;;;12.52;5.80;;;8.20;67.50;;;2.57;100.00;94994.56;4953183;28;20014;-49
2023/12/08 10:01:54;;;;;;;9.20;5.65;;;8.30;67.30;;;2.66;100.00;94993.16;4965596;28;20084;-49
2023/12/08 10:04:22;;;;;;;10.13;6.07;;;8.40;67.30;;;2.66;100.00;94977.38;4969625;28;20038;-51
2023/12/08 10:06:51;;;;;;;10.10;6.03;;;8.50;67.10;;;2.56;100.00;94982.41;4970764;28;20030;-50
2023/12/08 10:09:17;;;;;;;11.73;6.03;;;8.60;66.90;;;2.56;100.00;94982.41;4968610;28;20584;-53
2023/12/08 10:11:44;;;;;;;8.68;5.63;;;8.60;66.70;;;2.55;100.00;94979.00;4972239;28;20034;-51
2023/12/08 10:14:14;;;;;;;7.82;5.35;;;8.60;66.50;;;2.66;100.00;94982.63;4971018;28;20030;-50